sensor_id;sensor_type;location;lat;lon;timestamp;P1;durP1;ratioP1;P2;durP2;ratioP2
46845;SDS011;33947;46.804;134.252;2023-05-10T00:02:15;6.40;;;4.45;;
46845;SDS011;33947;46.804;134.252;2023-05-10T00:05:36;15.10;;;7.63;;
46845;SDS011;33947;46.804;134.252;2023-05-10T00:08:43;13.38;;;4.45;;
46845;SDS011;33947;46.804;134.252;2023-05-10T00:12:00;8.63;;;5.30;;
46845;SDS011;33947;46.804;134.252;2023-05-10T00:18:58;6.78;;;4.57;;
46845;SDS011;33947;46.804;134.252;2023-05-10T00:22:02;7.03;;;5.10;;
46845;SDS011;33947;46.804;134.252;2023-05-10T00:25:06;9.52;;;5.00;;
46845;SDS011;33947;46.804;134.252;2023-05-10T00:28:11;8.50;;;4.57;;
46845;SDS011;33947;46.804;134.252;2023-05-10T00:31:15;7.65;;;4.90;;
46845;SDS011;33947;46.804;134.252;2023-05-10T00:34:19;8.45;;;5.03;;
46845;SDS011;33947;46.804;134.252;2023-05-10T00:40:29;9.50;;;3.70;;
46845;SDS011;33947;46.804;134.252;2023-05-10T00:43:38;6.78;;;4.35;;
46845;SDS011;33947;46.804;134.252;2023-05-10T00:46:43;6.57;;;4.25;;
46845;SDS011;33947;46.804;134.252;2023-05-10T00:49:48;9.73;;;3.83;;
46845;SDS011;33947;46.804;134.252;2023-05-10T00:53:05;8.38;;;3.97;;
46845;SDS011;33947;46.804;134.252;2023-05-10T00:56:09;7.93;;;4.00;;
46845;SDS011;33947;46.804;134.252;2023-05-10T00:59:23;4.53;;;3.58;;
46845;SDS011;33947;46.804;134.252;2023-05-10T01:02:27;8.97;;;3.70;;
46845;SDS011;33947;46.804;134.252;2023-05-10T01:05:34;4.63;;;3.50;;
46845;SDS011;33947;46.804;134.252;2023-05-10T01:08:38;4.35;;;2.97;;
46845;SDS011;33947;46.804;134.252;2023-05-10T01:11:43;4.22;;;2.90;;
46845;SDS011;33947;46.804;134.252;2023-05-10T01:14:48;3.80;;;2.60;;
46845;SDS011;33947;46.804;134.252;2023-05-10T01:18:01;6.00;;;2.70;;
46845;SDS011;33947;46.804;134.252;2023-05-10T01:34:58;5.28;;;2.40;;
46845;SDS011;33947;46.804;134.252;2023-05-10T01:38:29;6.90;;;2.38;;
46845;SDS011;33947;46.804;134.252;2023-05-10T01:45:02;26.10;;;5.45;;
46845;SDS011;33947;46.804;134.252;2023-05-10T01:48:07;5.35;;;2.70;;
46845;SDS011;33947;46.804;134.252;2023-05-10T01:51:17;3.17;;;2.17;;
46845;SDS011;33947;46.804;134.252;2023-05-10T01:54:27;5.70;;;2.40;;
46845;SDS011;33947;46.804;134.252;2023-05-10T01:57:37;8.32;;;2.20;;
46845;SDS011;33947;46.804;134.252;2023-05-10T02:00:44;6.28;;;2.40;;
46845;SDS011;33947;46.804;134.252;2023-05-10T02:03:56;3.97;;;2.75;;
46845;SDS011;33947;46.804;134.252;2023-05-10T02:07:01;3.03;;;2.20;;
46845;SDS011;33947;46.804;134.252;2023-05-10T02:10:06;2.28;;;1.90;;
46845;SDS011;33947;46.804;134.252;2023-05-10T02:13:15;7.78;;;4.30;;
46845;SDS011;33947;46.804;134.252;2023-05-10T02:16:23;4.18;;;2.63;;
46845;SDS011;33947;46.804;134.252;2023-05-10T02:19:31;5.97;;;2.75;;
46845;SDS011;33947;46.804;134.252;2023-05-10T02:22:59;5.97;;;2.42;;
46845;SDS011;33947;46.804;134.252;2023-05-10T02:27:38;3.13;;;2.40;;
46845;SDS011;33947;46.804;134.252;2023-05-10T02:31:31;6.95;;;2.70;;
46845;SDS011;33947;46.804;134.252;2023-05-10T02:35:52;13.43;;;6.45;;
46845;SDS011;33947;46.804;134.252;2023-05-10T02:39:53;22.58;;;6.38;;
46845;SDS011;33947;46.804;134.252;2023-05-10T02:43:05;7.65;;;3.80;;
46845;SDS011;33947;46.804;134.252;2023-05-10T02:46:12;10.98;;;4.15;;
46845;SDS011;33947;46.804;134.252;2023-05-10T02:49:16;6.03;;;3.10;;
46845;SDS011;33947;46.804;134.252;2023-05-10T02:52:27;7.07;;;2.80;;
46845;SDS011;33947;46.804;134.252;2023-05-10T02:55:36;5.78;;;3.33;;
46845;SDS011;33947;46.804;134.252;2023-05-10T02:58:43;6.03;;;3.70;;
46845;SDS011;33947;46.804;134.252;2023-05-10T03:01:51;13.10;;;5.43;;
46845;SDS011;33947;46.804;134.252;2023-05-10T03:05:06;9.32;;;4.28;;
46845;SDS011;33947;46.804;134.252;2023-05-10T03:08:10;11.27;;;4.03;;
46845;SDS011;33947;46.804;134.252;2023-05-10T03:14:53;23.33;;;3.78;;
46845;SDS011;33947;46.804;134.252;2023-05-10T03:18:21;5.97;;;2.85;;
46845;SDS011;33947;46.804;134.252;2023-05-10T03:21:49;7.47;;;2.92;;
46845;SDS011;33947;46.804;134.252;2023-05-10T03:24:56;8.13;;;3.05;;
46845;SDS011;33947;46.804;134.252;2023-05-10T03:28:31;5.60;;;3.17;;
46845;SDS011;33947;46.804;134.252;2023-05-10T03:31:42;6.60;;;3.70;;
46845;SDS011;33947;46.804;134.252;2023-05-10T03:44:34;13.90;;;3.80;;
46845;SDS011;33947;46.804;134.252;2023-05-10T03:48:55;12.25;;;4.05;;
46845;SDS011;33947;46.804;134.252;2023-05-10T03:53:22;22.80;;;5.50;;
46845;SDS011;33947;46.804;134.252;2023-05-10T04:06:55;12.88;;;3.33;;
46845;SDS011;33947;46.804;134.252;2023-05-10T04:15:06;5.13;;;3.35;;
46845;SDS011;33947;46.804;134.252;2023-05-10T04:23:14;4.65;;;3.75;;
46845;SDS011;33947;46.804;134.252;2023-05-10T04:31:00;7.68;;;3.72;;
46845;SDS011;33947;46.804;134.252;2023-05-10T04:34:08;6.90;;;3.90;;
46845;SDS011;33947;46.804;134.252;2023-05-10T04:37:15;7.00;;;3.65;;
46845;SDS011;33947;46.804;134.252;2023-05-10T04:43:45;3.28;;;2.40;;
46845;SDS011;33947;46.804;134.252;2023-05-10T04:46:49;3.08;;;2.55;;
46845;SDS011;33947;46.804;134.252;2023-05-10T04:50:18;7.40;;;2.90;;
46845;SDS011;33947;46.804;134.252;2023-05-10T04:53:28;6.68;;;3.10;;
46845;SDS011;33947;46.804;134.252;2023-05-10T04:56:32;6.28;;;2.90;;
46845;SDS011;33947;46.804;134.252;2023-05-10T04:59:36;7.53;;;2.65;;
46845;SDS011;33947;46.804;134.252;2023-05-10T05:02:44;6.43;;;3.00;;
46845;SDS011;33947;46.804;134.252;2023-05-10T05:05:48;5.80;;;2.72;;
46845;SDS011;33947;46.804;134.252;2023-05-10T05:08:54;5.30;;;2.90;;
46845;SDS011;33947;46.804;134.252;2023-05-10T05:12:03;15.02;;;4.07;;
46845;SDS011;33947;46.804;134.252;2023-05-10T05:16:04;29.60;;;4.85;;
46845;SDS011;33947;46.804;134.252;2023-05-10T05:19:16;9.00;;;3.38;;
46845;SDS011;33947;46.804;134.252;2023-05-10T05:22:23;8.18;;;2.92;;
46845;SDS011;33947;46.804;134.252;2023-05-10T05:25:30;5.32;;;3.15;;
46845;SDS011;33947;46.804;134.252;2023-05-10T05:28:39;22.40;;;4.18;;
46845;SDS011;33947;46.804;134.252;2023-05-10T05:31:46;12.30;;;3.83;;
46845;SDS011;33947;46.804;134.252;2023-05-10T05:35:42;11.40;;;3.10;;
46845;SDS011;33947;46.804;134.252;2023-05-10T05:38:58;6.30;;;3.10;;
46845;SDS011;33947;46.804;134.252;2023-05-10T05:45:07;4.65;;;2.90;;
46845;SDS011;33947;46.804;134.252;2023-05-10T05:48:16;13.15;;;3.45;;
46845;SDS011;33947;46.804;134.252;2023-05-10T05:51:20;5.40;;;3.00;;
46845;SDS011;33947;46.804;134.252;2023-05-10T05:54:24;5.47;;;3.30;;
46845;SDS011;33947;46.804;134.252;2023-05-10T05:57:28;10.40;;;3.08;;
46845;SDS011;33947;46.804;134.252;2023-05-10T06:00:35;4.35;;;2.60;;
46845;SDS011;33947;46.804;134.252;2023-05-10T06:03:40;4.75;;;2.83;;
46845;SDS011;33947;46.804;134.252;2023-05-10T06:06:45;13.25;;;3.33;;
46845;SDS011;33947;46.804;134.252;2023-05-10T06:09:51;7.93;;;3.63;;
46845;SDS011;33947;46.804;134.252;2023-05-10T06:12:58;7.72;;;3.08;;
46845;SDS011;33947;46.804;134.252;2023-05-10T06:16:08;53.33;;;40.13;;
46845;SDS011;33947;46.804;134.252;2023-05-10T06:19:15;11.20;;;3.85;;
46845;SDS011;33947;46.804;134.252;2023-05-10T06:22:19;5.90;;;3.35;;
46845;SDS011;33947;46.804;134.252;2023-05-10T06:25:25;7.55;;;2.70;;
46845;SDS011;33947;46.804;134.252;2023-05-10T06:28:29;9.20;;;3.92;;
46845;SDS011;33947;46.804;134.252;2023-05-10T06:31:37;7.22;;;4.38;;
46845;SDS011;33947;46.804;134.252;2023-05-10T06:34:51;7.20;;;3.20;;
46845;SDS011;33947;46.804;134.252;2023-05-10T06:44:35;8.00;;;3.10;;
46845;SDS011;33947;46.804;134.252;2023-05-10T06:48:21;8.27;;;3.05;;
46845;SDS011;33947;46.804;134.252;2023-05-10T06:52:13;14.60;;;3.55;;
46845;SDS011;33947;46.804;134.252;2023-05-10T06:59:51;7.13;;;3.42;;
46845;SDS011;33947;46.804;134.252;2023-05-10T07:03:02;6.90;;;3.40;;
46845;SDS011;33947;46.804;134.252;2023-05-10T07:06:08;14.65;;;7.40;;
46845;SDS011;33947;46.804;134.252;2023-05-10T07:09:39;10.93;;;4.10;;
46845;SDS011;33947;46.804;134.252;2023-05-10T07:12:46;26.45;;;5.53;;
46845;SDS011;33947;46.804;134.252;2023-05-10T07:15:58;17.77;;;5.88;;
46845;SDS011;33947;46.804;134.252;2023-05-10T07:19:33;9.82;;;6.70;;
46845;SDS011;33947;46.804;134.252;2023-05-10T07:22:53;5.57;;;3.30;;
46845;SDS011;33947;46.804;134.252;2023-05-10T07:26:50;10.93;;;4.05;;
46845;SDS011;33947;46.804;134.252;2023-05-10T07:35:41;10.80;;;7.00;;
46845;SDS011;33947;46.804;134.252;2023-05-10T07:39:08;5.55;;;3.35;;
46845;SDS011;33947;46.804;134.252;2023-05-10T07:43:37;5.82;;;2.88;;
46845;SDS011;33947;46.804;134.252;2023-05-10T07:47:49;9.82;;;3.70;;
46845;SDS011;33947;46.804;134.252;2023-05-10T08:00:39;9.50;;;3.45;;
46845;SDS011;33947;46.804;134.252;2023-05-10T08:03:50;12.48;;;4.13;;
46845;SDS011;33947;46.804;134.252;2023-05-10T08:06:54;10.23;;;4.20;;
46845;SDS011;33947;46.804;134.252;2023-05-10T08:10:00;13.93;;;7.00;;
46845;SDS011;33947;46.804;134.252;2023-05-10T08:13:10;15.63;;;4.10;;
46845;SDS011;33947;46.804;134.252;2023-05-10T08:16:14;23.75;;;4.85;;
46845;SDS011;33947;46.804;134.252;2023-05-10T08:19:18;6.47;;;3.72;;
46845;SDS011;33947;46.804;134.252;2023-05-10T08:22:28;18.30;;;4.53;;
46845;SDS011;33947;46.804;134.252;2023-05-10T08:25:34;8.32;;;3.38;;
46845;SDS011;33947;46.804;134.252;2023-05-10T08:28:41;9.52;;;4.32;;
46845;SDS011;33947;46.804;134.252;2023-05-10T08:31:45;6.28;;;3.35;;
46845;SDS011;33947;46.804;134.252;2023-05-10T08:34:49;10.52;;;4.45;;
46845;SDS011;33947;46.804;134.252;2023-05-10T08:37:53;9.95;;;4.43;;
46845;SDS011;33947;46.804;134.252;2023-05-10T08:41:00;10.02;;;4.85;;
46845;SDS011;33947;46.804;134.252;2023-05-10T08:44:14;11.70;;;4.68;;
46845;SDS011;33947;46.804;134.252;2023-05-10T08:47:25;5.47;;;3.67;;
46845;SDS011;33947;46.804;134.252;2023-05-10T08:51:12;10.65;;;4.03;;
46845;SDS011;33947;46.804;134.252;2023-05-10T09:06:04;5.30;;;3.72;;
46845;SDS011;33947;46.804;134.252;2023-05-10T09:10:29;8.07;;;3.47;;
46845;SDS011;33947;46.804;134.252;2023-05-10T09:15:10;59.13;;;33.10;;
46845;SDS011;33947;46.804;134.252;2023-05-10T09:19:21;8.27;;;4.22;;
46845;SDS011;33947;46.804;134.252;2023-05-10T09:23:06;10.32;;;5.20;;
46845;SDS011;33947;46.804;134.252;2023-05-10T09:31:53;13.55;;;5.10;;
46845;SDS011;33947;46.804;134.252;2023-05-10T09:35:48;9.52;;;5.15;;
46845;SDS011;33947;46.804;134.252;2023-05-10T09:39:35;11.98;;;4.85;;
46845;SDS011;33947;46.804;134.252;2023-05-10T09:43:08;10.43;;;4.45;;
46845;SDS011;33947;46.804;134.252;2023-05-10T09:46:16;7.93;;;4.43;;
46845;SDS011;33947;46.804;134.252;2023-05-10T09:49:26;9.23;;;5.97;;
46845;SDS011;33947;46.804;134.252;2023-05-10T09:52:51;13.02;;;6.18;;
46845;SDS011;33947;46.804;134.252;2023-05-10T09:56:09;13.52;;;6.95;;
46845;SDS011;33947;46.804;134.252;2023-05-10T09:59:13;15.82;;;6.63;;
46845;SDS011;33947;46.804;134.252;2023-05-10T10:02:22;17.48;;;8.07;;
46845;SDS011;33947;46.804;134.252;2023-05-10T10:05:33;15.82;;;7.00;;
46845;SDS011;33947;46.804;134.252;2023-05-10T10:08:45;14.93;;;6.65;;
46845;SDS011;33947;46.804;134.252;2023-05-10T10:11:54;16.88;;;8.05;;
46845;SDS011;33947;46.804;134.252;2023-05-10T10:15:00;16.52;;;7.78;;
46845;SDS011;33947;46.804;134.252;2023-05-10T10:22:29;18.92;;;7.63;;
46845;SDS011;33947;46.804;134.252;2023-05-10T10:28:51;35.17;;;16.15;;
46845;SDS011;33947;46.804;134.252;2023-05-10T10:32:32;30.65;;;14.95;;
46845;SDS011;33947;46.804;134.252;2023-05-10T10:35:37;41.42;;;20.45;;
46845;SDS011;33947;46.804;134.252;2023-05-10T10:42:12;39.92;;;19.67;;
46845;SDS011;33947;46.804;134.252;2023-05-10T10:50:18;61.67;;;26.95;;
46845;SDS011;33947;46.804;134.252;2023-05-10T10:53:11;76.80;;;32.10;;
46845;SDS011;33947;46.804;134.252;2023-05-10T10:56:19;76.80;;;33.03;;
46845;SDS011;33947;46.804;134.252;2023-05-10T10:59:27;90.05;;;39.08;;
46845;SDS011;33947;46.804;134.252;2023-05-10T11:09:07;102.45;;;40.60;;
46845;SDS011;33947;46.804;134.252;2023-05-10T11:12:15;97.75;;;40.90;;
46845;SDS011;33947;46.804;134.252;2023-05-10T11:15:30;100.63;;;39.08;;
46845;SDS011;33947;46.804;134.252;2023-05-10T11:22:12;97.82;;;33.72;;
46845;SDS011;33947;46.804;134.252;2023-05-10T11:25:26;79.35;;;33.13;;
46845;SDS011;33947;46.804;134.252;2023-05-10T11:28:45;67.50;;;26.80;;
46845;SDS011;33947;46.804;134.252;2023-05-10T11:31:51;85.43;;;33.40;;
46845;SDS011;33947;46.804;134.252;2023-05-10T11:34:54;80.13;;;31.63;;
46845;SDS011;33947;46.804;134.252;2023-05-10T11:37:59;71.28;;;30.92;;
46845;SDS011;33947;46.804;134.252;2023-05-10T11:41:03;79.85;;;31.77;;
46845;SDS011;33947;46.804;134.252;2023-05-10T11:44:10;114.88;;;44.90;;
46845;SDS011;33947;46.804;134.252;2023-05-10T11:47:15;116.72;;;45.17;;
46845;SDS011;33947;46.804;134.252;2023-05-10T11:50:20;131.88;;;49.28;;
46845;SDS011;33947;46.804;134.252;2023-05-10T11:53:28;100.63;;;44.28;;
46845;SDS011;33947;46.804;134.252;2023-05-10T11:56:41;113.68;;;45.67;;
46845;SDS011;33947;46.804;134.252;2023-05-10T11:59:54;60.10;;;27.40;;
46845;SDS011;33947;46.804;134.252;2023-05-10T12:03:06;42.88;;;22.90;;
46845;SDS011;33947;46.804;134.252;2023-05-10T12:06:20;53.88;;;26.63;;
46845;SDS011;33947;46.804;134.252;2023-05-10T12:09:25;58.25;;;27.42;;
46845;SDS011;33947;46.804;134.252;2023-05-10T12:12:45;55.28;;;26.48;;
46845;SDS011;33947;46.804;134.252;2023-05-10T12:16:01;49.13;;;23.75;;
46845;SDS011;33947;46.804;134.252;2023-05-10T12:19:24;57.22;;;26.48;;
46845;SDS011;33947;46.804;134.252;2023-05-10T12:22:30;71.75;;;28.77;;
46845;SDS011;33947;46.804;134.252;2023-05-10T12:25:41;71.85;;;31.15;;
46845;SDS011;33947;46.804;134.252;2023-05-10T12:28:50;80.28;;;32.28;;
46845;SDS011;33947;46.804;134.252;2023-05-10T12:32:01;77.90;;;30.95;;
46845;SDS011;33947;46.804;134.252;2023-05-10T12:35:06;77.70;;;32.70;;
46845;SDS011;33947;46.804;134.252;2023-05-10T12:41:43;41.95;;;19.83;;
46845;SDS011;33947;46.804;134.252;2023-05-10T12:44:47;45.88;;;22.42;;
46845;SDS011;33947;46.804;134.252;2023-05-10T12:47:51;63.08;;;29.10;;
46845;SDS011;33947;46.804;134.252;2023-05-10T12:50:55;61.58;;;27.73;;
46845;SDS011;33947;46.804;134.252;2023-05-10T12:53:59;58.58;;;29.00;;
46845;SDS011;33947;46.804;134.252;2023-05-10T12:57:03;59.88;;;29.25;;
46845;SDS011;33947;46.804;134.252;2023-05-10T13:00:09;58.50;;;29.15;;
46845;SDS011;33947;46.804;134.252;2023-05-10T13:03:14;68.97;;;30.00;;
46845;SDS011;33947;46.804;134.252;2023-05-10T13:06:20;79.75;;;36.20;;
46845;SDS011;33947;46.804;134.252;2023-05-10T13:09:27;64.90;;;27.70;;
46845;SDS011;33947;46.804;134.252;2023-05-10T13:12:32;79.03;;;32.73;;
46845;SDS011;33947;46.804;134.252;2023-05-10T13:15:37;84.97;;;37.30;;
46845;SDS011;33947;46.804;134.252;2023-05-10T13:18:41;83.18;;;35.28;;
46845;SDS011;33947;46.804;134.252;2023-05-10T13:21:45;94.15;;;38.70;;
46845;SDS011;33947;46.804;134.252;2023-05-10T13:24:50;116.85;;;43.55;;
46845;SDS011;33947;46.804;134.252;2023-05-10T13:27:56;100.70;;;39.30;;
46845;SDS011;33947;46.804;134.252;2023-05-10T13:31:00;79.93;;;35.15;;
46845;SDS011;33947;46.804;134.252;2023-05-10T13:34:04;86.40;;;36.55;;
46845;SDS011;33947;46.804;134.252;2023-05-10T13:37:09;89.15;;;37.08;;
46845;SDS011;33947;46.804;134.252;2023-05-10T13:40:13;96.18;;;36.80;;
46845;SDS011;33947;46.804;134.252;2023-05-10T13:43:20;73.30;;;30.75;;
46845;SDS011;33947;46.804;134.252;2023-05-10T13:46:24;64.45;;;26.33;;
46845;SDS011;33947;46.804;134.252;2023-05-10T13:49:30;26.48;;;12.63;;
46845;SDS011;33947;46.804;134.252;2023-05-10T13:52:37;19.10;;;8.90;;
46845;SDS011;33947;46.804;134.252;2023-05-10T13:55:41;32.17;;;13.88;;
46845;SDS011;33947;46.804;134.252;2023-05-10T13:58:49;32.70;;;14.65;;
46845;SDS011;33947;46.804;134.252;2023-05-10T14:01:53;25.42;;;12.07;;
46845;SDS011;33947;46.804;134.252;2023-05-10T14:04:57;34.15;;;12.75;;
46845;SDS011;33947;46.804;134.252;2023-05-10T14:11:54;25.83;;;13.70;;
46845;SDS011;33947;46.804;134.252;2023-05-10T14:15:13;24.45;;;12.57;;
46845;SDS011;33947;46.804;134.252;2023-05-10T14:18:17;34.13;;;14.63;;
46845;SDS011;33947;46.804;134.252;2023-05-10T14:21:22;31.13;;;12.40;;
46845;SDS011;33947;46.804;134.252;2023-05-10T14:24:28;26.45;;;12.25;;
46845;SDS011;33947;46.804;134.252;2023-05-10T14:27:32;27.75;;;12.95;;
46845;SDS011;33947;46.804;134.252;2023-05-10T14:30:36;29.40;;;14.23;;
46845;SDS011;33947;46.804;134.252;2023-05-10T14:33:41;41.58;;;17.27;;
46845;SDS011;33947;46.804;134.252;2023-05-10T14:36:47;31.05;;;15.65;;
46845;SDS011;33947;46.804;134.252;2023-05-10T14:39:51;30.20;;;15.93;;
46845;SDS011;33947;46.804;134.252;2023-05-10T14:42:55;30.50;;;14.63;;
46845;SDS011;33947;46.804;134.252;2023-05-10T14:46:02;33.60;;;15.38;;
46845;SDS011;33947;46.804;134.252;2023-05-10T14:49:06;31.95;;;14.93;;
46845;SDS011;33947;46.804;134.252;2023-05-10T14:52:13;34.42;;;15.32;;
46845;SDS011;33947;46.804;134.252;2023-05-10T14:55:17;34.85;;;14.65;;
46845;SDS011;33947;46.804;134.252;2023-05-10T14:58:21;30.45;;;14.90;;
46845;SDS011;33947;46.804;134.252;2023-05-10T15:01:25;25.65;;;13.85;;
46845;SDS011;33947;46.804;134.252;2023-05-10T15:04:32;23.25;;;13.18;;
46845;SDS011;33947;46.804;134.252;2023-05-10T15:07:39;28.77;;;14.18;;
46845;SDS011;33947;46.804;134.252;2023-05-10T15:10:43;32.13;;;14.52;;
46845;SDS011;33947;46.804;134.252;2023-05-10T15:13:50;33.72;;;16.15;;
46845;SDS011;33947;46.804;134.252;2023-05-10T15:17:00;35.65;;;16.73;;
46845;SDS011;33947;46.804;134.252;2023-05-10T15:20:04;30.27;;;14.73;;
46845;SDS011;33947;46.804;134.252;2023-05-10T15:23:17;33.80;;;15.90;;
46845;SDS011;33947;46.804;134.252;2023-05-10T15:26:21;35.60;;;17.70;;
46845;SDS011;33947;46.804;134.252;2023-05-10T15:29:28;34.42;;;16.35;;
46845;SDS011;33947;46.804;134.252;2023-05-10T15:32:32;31.95;;;14.40;;
46845;SDS011;33947;46.804;134.252;2023-05-10T15:35:37;24.77;;;12.60;;
46845;SDS011;33947;46.804;134.252;2023-05-10T15:38:42;27.73;;;13.48;;
46845;SDS011;33947;46.804;134.252;2023-05-10T15:41:51;28.20;;;12.63;;
46845;SDS011;33947;46.804;134.252;2023-05-10T15:44:58;27.33;;;12.30;;
46845;SDS011;33947;46.804;134.252;2023-05-10T15:48:06;22.35;;;10.98;;
46845;SDS011;33947;46.804;134.252;2023-05-10T15:51:10;26.48;;;13.15;;
46845;SDS011;33947;46.804;134.252;2023-05-10T15:54:14;23.73;;;13.00;;
46845;SDS011;33947;46.804;134.252;2023-05-10T15:57:24;27.55;;;12.85;;
46845;SDS011;33947;46.804;134.252;2023-05-10T16:00:28;24.38;;;12.82;;
46845;SDS011;33947;46.804;134.252;2023-05-10T16:03:35;26.48;;;12.93;;
46845;SDS011;33947;46.804;134.252;2023-05-10T16:06:39;25.75;;;12.50;;
46845;SDS011;33947;46.804;134.252;2023-05-10T16:09:43;27.35;;;12.38;;
46845;SDS011;33947;46.804;134.252;2023-05-10T16:12:49;34.25;;;15.88;;
46845;SDS011;33947;46.804;134.252;2023-05-10T16:15:53;28.02;;;13.50;;
46845;SDS011;33947;46.804;134.252;2023-05-10T16:19:01;25.00;;;13.15;;
46845;SDS011;33947;46.804;134.252;2023-05-10T16:22:06;31.05;;;13.85;;
46845;SDS011;33947;46.804;134.252;2023-05-10T16:25:10;24.95;;;13.30;;
46845;SDS011;33947;46.804;134.252;2023-05-10T16:28:17;25.20;;;12.07;;
46845;SDS011;33947;46.804;134.252;2023-05-10T16:31:23;17.42;;;10.68;;
46845;SDS011;33947;46.804;134.252;2023-05-10T16:34:27;20.35;;;10.00;;
46845;SDS011;33947;46.804;134.252;2023-05-10T16:37:31;23.80;;;10.30;;
46845;SDS011;33947;46.804;134.252;2023-05-10T16:40:35;18.33;;;9.20;;
46845;SDS011;33947;46.804;134.252;2023-05-10T16:43:41;21.05;;;9.75;;
46845;SDS011;33947;46.804;134.252;2023-05-10T16:46:45;21.50;;;10.05;;
46845;SDS011;33947;46.804;134.252;2023-05-10T16:49:50;18.17;;;10.73;;
46845;SDS011;33947;46.804;134.252;2023-05-10T16:52:54;21.23;;;9.45;;
46845;SDS011;33947;46.804;134.252;2023-05-10T16:55:58;20.60;;;9.23;;
46845;SDS011;33947;46.804;134.252;2023-05-10T16:59:02;16.98;;;10.35;;
46845;SDS011;33947;46.804;134.252;2023-05-10T17:02:06;18.73;;;9.00;;
46845;SDS011;33947;46.804;134.252;2023-05-10T17:05:11;16.63;;;9.48;;
46845;SDS011;33947;46.804;134.252;2023-05-10T17:08:15;12.35;;;7.72;;
46845;SDS011;33947;46.804;134.252;2023-05-10T17:11:19;17.33;;;8.27;;
46845;SDS011;33947;46.804;134.252;2023-05-10T17:14:24;15.80;;;8.57;;
46845;SDS011;33947;46.804;134.252;2023-05-10T17:17:32;18.63;;;8.23;;
46845;SDS011;33947;46.804;134.252;2023-05-10T17:20:42;12.65;;;7.47;;
46845;SDS011;33947;46.804;134.252;2023-05-10T17:23:51;14.18;;;7.05;;
46845;SDS011;33947;46.804;134.252;2023-05-10T17:27:00;18.85;;;9.40;;
46845;SDS011;33947;46.804;134.252;2023-05-10T17:30:09;9.63;;;6.00;;
46845;SDS011;33947;46.804;134.252;2023-05-10T17:33:14;12.13;;;6.60;;
46845;SDS011;33947;46.804;134.252;2023-05-10T17:36:18;11.13;;;6.03;;
46845;SDS011;33947;46.804;134.252;2023-05-10T17:39:22;13.05;;;6.43;;
46845;SDS011;33947;46.804;134.252;2023-05-10T17:42:34;14.65;;;7.00;;
46845;SDS011;33947;46.804;134.252;2023-05-10T17:45:38;11.65;;;6.63;;
46845;SDS011;33947;46.804;134.252;2023-05-10T17:48:42;14.18;;;8.38;;
46845;SDS011;33947;46.804;134.252;2023-05-10T17:51:46;11.90;;;7.20;;
46845;SDS011;33947;46.804;134.252;2023-05-10T17:54:52;11.90;;;6.68;;
46845;SDS011;33947;46.804;134.252;2023-05-10T17:57:57;11.32;;;6.85;;
46845;SDS011;33947;46.804;134.252;2023-05-10T18:01:12;10.73;;;6.50;;
46845;SDS011;33947;46.804;134.252;2023-05-10T18:04:21;14.13;;;7.55;;
46845;SDS011;33947;46.804;134.252;2023-05-10T18:07:26;15.93;;;7.50;;
46845;SDS011;33947;46.804;134.252;2023-05-10T18:10:37;18.75;;;8.35;;
46845;SDS011;33947;46.804;134.252;2023-05-10T18:13:43;15.43;;;8.43;;
46845;SDS011;33947;46.804;134.252;2023-05-10T18:16:47;15.65;;;7.57;;
46845;SDS011;33947;46.804;134.252;2023-05-10T18:19:53;21.45;;;9.38;;
46845;SDS011;33947;46.804;134.252;2023-05-10T18:23:00;20.27;;;9.20;;
46845;SDS011;33947;46.804;134.252;2023-05-10T18:26:05;14.00;;;7.90;;
46845;SDS011;33947;46.804;134.252;2023-05-10T18:29:13;11.43;;;6.97;;
46845;SDS011;33947;46.804;134.252;2023-05-10T18:32:21;12.25;;;7.18;;
46845;SDS011;33947;46.804;134.252;2023-05-10T18:35:26;12.70;;;6.75;;
46845;SDS011;33947;46.804;134.252;2023-05-10T18:38:30;13.10;;;7.45;;
46845;SDS011;33947;46.804;134.252;2023-05-10T18:41:34;10.70;;;6.90;;
46845;SDS011;33947;46.804;134.252;2023-05-10T18:44:39;14.25;;;6.90;;
46845;SDS011;33947;46.804;134.252;2023-05-10T18:47:43;12.88;;;7.05;;
46845;SDS011;33947;46.804;134.252;2023-05-10T18:50:56;13.93;;;7.65;;
46845;SDS011;33947;46.804;134.252;2023-05-10T18:54:00;12.60;;;7.00;;
46845;SDS011;33947;46.804;134.252;2023-05-10T18:57:04;9.90;;;6.20;;
46845;SDS011;33947;46.804;134.252;2023-05-10T19:00:09;11.55;;;7.28;;
46845;SDS011;33947;46.804;134.252;2023-05-10T19:03:16;13.02;;;7.57;;
46845;SDS011;33947;46.804;134.252;2023-05-10T19:06:20;13.15;;;7.50;;
46845;SDS011;33947;46.804;134.252;2023-05-10T19:09:28;15.40;;;7.82;;
46845;SDS011;33947;46.804;134.252;2023-05-10T19:12:32;18.38;;;6.72;;
46845;SDS011;33947;46.804;134.252;2023-05-10T19:15:36;10.23;;;6.40;;
46845;SDS011;33947;46.804;134.252;2023-05-10T19:18:43;10.77;;;5.95;;
46845;SDS011;33947;46.804;134.252;2023-05-10T19:21:51;13.38;;;7.78;;
46845;SDS011;33947;46.804;134.252;2023-05-10T19:25:00;18.90;;;11.55;;
46845;SDS011;33947;46.804;134.252;2023-05-10T19:28:12;23.15;;;11.20;;
46845;SDS011;33947;46.804;134.252;2023-05-10T19:31:19;19.77;;;10.50;;
46845;SDS011;33947;46.804;134.252;2023-05-10T19:34:26;18.70;;;10.15;;
46845;SDS011;33947;46.804;134.252;2023-05-10T19:37:33;17.17;;;9.95;;
46845;SDS011;33947;46.804;134.252;2023-05-10T19:40:37;18.80;;;11.15;;
46845;SDS011;33947;46.804;134.252;2023-05-10T19:43:41;14.80;;;9.20;;
46845;SDS011;33947;46.804;134.252;2023-05-10T19:46:48;18.10;;;9.60;;
46845;SDS011;33947;46.804;134.252;2023-05-10T19:50:00;17.77;;;12.43;;
46845;SDS011;33947;46.804;134.252;2023-05-10T19:53:07;19.03;;;9.60;;
46845;SDS011;33947;46.804;134.252;2023-05-10T19:56:24;20.10;;;9.52;;
46845;SDS011;33947;46.804;134.252;2023-05-10T19:59:31;26.83;;;10.98;;
46845;SDS011;33947;46.804;134.252;2023-05-10T20:02:44;18.30;;;9.48;;
46845;SDS011;33947;46.804;134.252;2023-05-10T20:05:50;16.38;;;8.90;;
46845;SDS011;33947;46.804;134.252;2023-05-10T20:08:54;21.90;;;9.55;;
46845;SDS011;33947;46.804;134.252;2023-05-10T20:11:58;21.98;;;9.93;;
46845;SDS011;33947;46.804;134.252;2023-05-10T20:15:05;19.58;;;9.80;;
46845;SDS011;33947;46.804;134.252;2023-05-10T20:18:10;23.67;;;9.80;;
46845;SDS011;33947;46.804;134.252;2023-05-10T20:21:17;19.38;;;10.00;;
46845;SDS011;33947;46.804;134.252;2023-05-10T20:24:24;20.27;;;9.52;;
46845;SDS011;33947;46.804;134.252;2023-05-10T20:27:28;26.13;;;12.20;;
46845;SDS011;33947;46.804;134.252;2023-05-10T20:30:38;18.60;;;10.07;;
46845;SDS011;33947;46.804;134.252;2023-05-10T20:33:50;8.27;;;4.80;;
46845;SDS011;33947;46.804;134.252;2023-05-10T20:36:56;7.97;;;5.22;;
46845;SDS011;33947;46.804;134.252;2023-05-10T20:40:00;7.53;;;5.10;;
46845;SDS011;33947;46.804;134.252;2023-05-10T20:43:11;9.02;;;4.00;;
46845;SDS011;33947;46.804;134.252;2023-05-10T20:46:23;11.50;;;6.32;;
46845;SDS011;33947;46.804;134.252;2023-05-10T20:49:31;11.18;;;5.90;;